Time;durP1;ratioP1;P1;durP2;ratioP2;P2;SDS_P1;SDS_P2;PMS_P1;PMS_P2;Temp;Humidity;BMP_temperature;BMP_pressure;BME280_temperature;BME280_humidity;BME280_pressure;Samples;Min_cycle;Max_cycle;Signal;HPM_P1;HPM_P2
2022/07/04 00:01:33;;;;;;;2.63;2.20;;;26.50;42.20;;;;;;5014206;27;20470;-92
2022/07/04 00:04:00;;;;;;;2.00;1.80;;;26.50;42.30;;;;;;5005855;28;20833;-90
2022/07/04 00:06:27;;;;;;;1.87;1.77;;;26.50;42.50;;;;;;5010915;27;20502;-91
2022/07/04 00:08:54;;;;;;;2.20;2.00;;;26.50;42.80;;;;;;5038375;27;20502;-91
2022/07/04 00:11:23;;;;;;;2.27;2.07;;;26.40;43.40;;;;;;5014613;28;22102;-91
2022/07/04 00:13:50;;;;;;;2.13;2.03;;;26.40;43.70;;;;;;5033342;27;20454;-92
2022/07/04 00:16:17;;;;;;;2.30;2.10;;;26.30;43.90;;;;;;5003277;28;20485;-92
2022/07/04 00:18:44;;;;;;;2.00;1.90;;;26.30;44.00;;;;;;5021762;28;20449;-91
2022/07/04 00:21:11;;;;;;;2.70;2.43;;;26.30;43.60;;;;;;5031434;27;20451;-91
2022/07/04 00:23:38;;;;;;;2.40;2.20;;;26.10;44.40;;;;;;5018364;28;20449;-91
2022/07/04 00:26:05;;;;;;;2.53;2.33;;;26.10;44.30;;;;;;5040608;27;20566;-91
2022/07/04 00:28:33;;;;;;;2.83;2.10;;;26.00;44.00;;;;;;5031200;27;20450;-91
2022/07/04 00:31:01;;;;;;;2.90;2.47;;;25.90;44.20;;;;;;5000736;28;20451;-91
2022/07/04 00:33:28;;;;;;;2.57;2.33;;;25.90;43.20;;;;;;5006987;28;20988;-91
2022/07/04 00:35:55;;;;;;;3.93;2.23;;;26.00;43.90;;;;;;5022579;27;20997;-91
2022/07/04 00:38:22;;;;;;;3.07;2.50;;;25.80;44.30;;;;;;5036791;27;20477;-91
2022/07/04 00:40:49;;;;;;;4.50;2.50;;;25.80;44.40;;;;;;5086042;28;20475;-90
2022/07/04 00:43:23;;;;;;;3.17;2.00;;;25.90;44.00;;;;;;5018057;28;20485;-91
2022/07/04 00:45:51;;;;;;;4.97;2.40;;;25.90;43.80;;;;;;5038380;27;20470;-90
2022/07/04 00:48:19;;;;;;;2.10;2.00;;;25.90;44.20;;;;;;5095030;27;20470;-91
2022/07/04 00:50:47;;;;;;;2.60;2.17;;;25.90;43.80;;;;;;5021915;27;20964;-91
2022/07/04 00:53:15;;;;;;;3.33;2.10;;;25.90;43.90;;;;;;5036865;27;21021;-91
2022/07/04 00:55:42;;;;;;;2.73;2.53;;;25.90;43.80;;;;;;5016217;27;20510;-91
2022/07/04 00:58:11;;;;;;;2.60;2.40;;;25.90;43.90;;;;;;5017197;27;20722;-91
2022/07/04 01:00:38;;;;;;;2.60;2.40;;;25.90;43.90;;;;;;5020291;27;20454;-91
2022/07/04 01:03:06;;;;;;;2.83;2.63;;;25.90;43.90;;;;;;5026675;27;20446;-91
2022/07/04 01:05:33;;;;;;;5.30;2.87;;;25.80;43.90;;;;;;5038076;27;20478;-91
2022/07/04 01:08:00;;;;;;;2.10;2.00;;;25.80;43.90;;;;;;5013315;28;20565;-91
2022/07/04 01:10:27;;;;;;;3.93;2.40;;;25.80;44.00;;;;;;5031580;27;20825;-90
2022/07/04 01:12:55;;;;;;;3.43;2.40;;;25.80;44.10;;;;;;5028710;28;20454;-90
2022/07/04 01:15:22;;;;;;;2.80;2.60;;;25.70;44.10;;;;;;5021529;28;20926;-90
2022/07/04 01:17:49;;;;;;;2.90;2.70;;;25.70;44.00;;;;;;5031438;27;20941;-91
2022/07/04 01:20:18;;;;;;;5.20;2.53;;;25.60;44.00;;;;;;5044148;28;20463;-91
2022/07/04 01:22:45;;;;;;;2.43;2.23;;;25.60;43.60;;;;;;5010972;28;20443;-92
2022/07/04 01:25:13;;;;;;;3.13;2.80;;;25.60;44.60;;;;;;5069059;28;20565;-90
2022/07/04 01:27:40;;;;;;;2.60;2.40;;;25.60;44.00;;;;;;5011242;28;20473;-91
2022/07/04 01:30:09;;;;;;;2.73;2.53;;;25.60;44.20;;;;;;5005846;27;20519;-91
2022/07/04 01:32:36;;;;;;;2.70;2.50;;;25.50;44.10;;;;;;5016237;28;20458;-91
2022/07/04 01:35:03;;;;;;;2.80;2.50;;;25.50;44.50;;;;;;5039419;27;20888;-90
2022/07/04 01:37:31;;;;;;;2.93;2.50;;;25.40;44.50;;;;;;5012454;28;20470;-91
2022/07/04 01:39:58;;;;;;;2.77;2.57;;;25.40;44.20;;;;;;5009933;28;20968;-91
2022/07/04 01:42:25;;;;;;;2.27;2.17;;;25.40;44.10;;;;;;5010331;28;20443;-91
2022/07/04 01:44:52;;;;;;;3.60;2.63;;;25.40;44.50;;;;;;5025709;28;20474;-92
2022/07/04 01:47:19;;;;;;;2.70;2.50;;;25.30;44.70;;;;;;5013514;28;20519;-91
2022/07/04 01:49:46;;;;;;;2.83;2.57;;;25.30;44.90;;;;;;5025388;27;20486;-91
2022/07/04 01:52:15;;;;;;;2.87;2.67;;;25.30;45.40;;;;;;5019061;28;20451;-90
2022/07/04 01:54:44;;;;;;;2.87;2.60;;;25.30;45.90;;;;;;5029665;27;20569;-91
2022/07/04 01:57:12;;;;;;;2.37;2.27;;;25.30;47.10;;;;;;5030025;27;20470;-91
2022/07/04 02:02:24;;;;;;;3.40;2.57;;;25.30;46.70;;;;;;5024323;28;20461;-91
2022/07/04 02:04:52;;;;;;;3.43;3.10;;;25.20;46.90;;;;;;5024745;28;21005;-92
2022/07/04 02:07:19;;;;;;;2.63;2.50;;;25.20;47.10;;;;;;5014543;28;20497;-91
2022/07/04 02:09:48;;;;;;;4.27;2.80;;;25.20;47.00;;;;;;5017695;27;21300;-91
2022/07/04 02:15:00;;;;;;;3.10;2.50;;;25.20;47.00;;;;;;5009180;28;20848;-91
2022/07/04 02:17:27;;;;;;;3.20;2.90;;;25.20;47.10;;;;;;5034799;27;20448;-90
2022/07/04 02:19:54;;;;;;;3.27;3.03;;;25.10;47.20;;;;;;5025437;28;20476;-92
2022/07/04 02:22:21;;;;;;;2.87;2.67;;;25.10;47.00;;;;;;5056420;27;20476;-91
2022/07/04 02:24:49;;;;;;;2.80;2.60;;;25.00;46.30;;;;;;5040300;27;20468;-92
2022/07/04 02:27:16;;;;;;;3.07;2.53;;;25.00;46.50;;;;;;5008080;28;20552;-91
2022/07/04 02:29:43;;;;;;;2.63;2.43;;;24.90;46.80;;;;;;5030817;28;20454;-92
2022/07/04 02:32:10;;;;;;;3.40;3.10;;;24.90;46.70;;;;;;5016513;28;20974;-92
2022/07/04 02:34:38;;;;;;;3.40;3.10;;;24.80;46.80;;;;;;5042730;27;20901;-90
2022/07/04 02:37:05;;;;;;;2.47;2.33;;;24.90;47.30;;;;;;5042515;27;20443;-91
2022/07/04 02:39:32;;;;;;;3.20;3.00;;;24.80;46.80;;;;;;5000103;27;20994;-91
2022/07/04 02:42:01;;;;;;;4.20;3.20;;;24.80;46.60;;;;;;5039733;27;20458;-90
2022/07/04 02:44:28;;;;;;;2.67;2.47;;;24.80;46.90;;;;;;5023722;27;20450;-92
2022/07/04 02:46:55;;;;;;;3.93;2.83;;;24.80;46.50;;;;;;4997834;28;20478;-91
2022/07/04 02:49:22;;;;;;;3.00;2.57;;;24.70;46.50;;;;;;5036743;27;20872;-92
2022/07/04 02:51:49;;;;;;;2.40;2.30;;;24.60;46.60;;;;;;5038402;27;20965;-92
2022/07/04 02:54:16;;;;;;;3.10;2.90;;;24.60;46.70;;;;;;5053272;27;20814;-91
2022/07/04 02:56:43;;;;;;;2.43;2.27;;;24.60;46.50;;;;;;5039676;27;20498;-92
2022/07/04 02:59:12;;;;;;;2.90;2.70;;;24.60;47.10;;;;;;5017165;27;20953;-92
2022/07/04 03:01:39;;;;;;;4.30;2.90;;;24.50;46.70;;;;;;5034915;28;20456;-91
2022/07/04 03:04:06;;;;;;;4.60;3.43;;;24.50;46.90;;;;;;5034997;27;20450;-91
2022/07/04 03:06:33;;;;;;;2.93;2.73;;;24.50;46.80;;;;;;5017995;27;20985;-92
2022/07/04 03:09:00;;;;;;;3.03;2.83;;;24.40;46.90;;;;;;5017844;28;20969;-92
2022/07/04 03:11:27;;;;;;;3.00;2.80;;;24.10;47.10;;;;;;5031946;28;20854;-91
2022/07/04 03:13:54;;;;;;;4.20;3.20;;;23.60;48.20;;;;;;5039435;27;20862;-91
2022/07/04 03:16:22;;;;;;;3.03;2.80;;;23.70;48.40;;;;;;5034631;27;20470;-91
2022/07/04 03:18:50;;;;;;;3.17;2.97;;;23.80;47.70;;;;;;5025193;28;20449;-90
2022/07/04 03:21:17;;;;;;;3.07;2.87;;;23.80;47.40;;;;;;5019649;28;21132;-91
2022/07/04 03:23:57;;;;;;;3.93;2.93;;;23.80;48.10;;;;;;5042935;27;20481;-91
2022/07/04 03:26:24;;;;;;;5.93;3.37;;;23.90;47.90;;;;;;4998590;28;20466;-91
2022/07/04 03:28:51;;;;;;;4.53;3.40;;;23.90;48.60;;;;;;5015461;28;20465;-91
2022/07/04 03:34:13;;;;;;;3.40;3.10;;;22.90;49.50;;;;;;5037159;28;20434;-90
2022/07/04 03:36:40;;;;;;;3.67;3.20;;;22.90;49.80;;;;;;4991006;28;20517;-91
2022/07/04 03:39:07;;;;;;;2.87;2.67;;;23.10;49.10;;;;;;5026644;28;20966;-90
2022/07/04 03:41:35;;;;;;;3.70;2.90;;;23.40;48.90;;;;;;5054525;28;20453;-91
2022/07/04 03:44:03;;;;;;;3.00;2.80;;;23.30;48.80;;;;;;5026798;28;20455;-88
2022/07/04 03:46:30;;;;;;;3.30;3.00;;;23.20;49.00;;;;;;5022478;28;20502;-91
2022/07/04 03:48:57;;;;;;;2.80;2.60;;;23.20;48.80;;;;;;5022513;28;20527;-90
2022/07/04 03:51:25;;;;;;;3.90;3.13;;;23.10;49.30;;;;;;5027266;28;20450;-91
2022/07/04 03:53:52;;;;;;;4.70;2.70;;;23.20;49.00;;;;;;5001953;28;20515;-90
2022/07/04 03:56:19;;;;;;;3.87;2.97;;;23.10;49.50;;;;;;5005378;28;20523;-91
2022/07/04 03:58:48;;;;;;;6.00;3.37;;;23.30;48.90;;;;;;5022343;28;20581;-92
2022/07/04 04:01:17;;;;;;;3.37;3.07;;;23.50;49.10;;;;;;5034844;28;20458;-90
2022/07/04 04:06:31;;;;;;;3.87;2.70;;;23.80;48.70;;;;;;5012186;28;20486;-90
2022/07/04 04:08:58;;;;;;;2.87;2.67;;;23.90;48.50;;;;;;4995482;28;20463;-90
2022/07/04 04:11:25;;;;;;;4.83;2.90;;;23.90;48.30;;;;;;5055379;28;20438;-91
2022/07/04 04:13:52;;;;;;;3.10;2.87;;;24.00;48.30;;;;;;5029670;28;20454;-90
2022/07/04 04:16:19;;;;;;;3.27;3.07;;;24.00;48.40;;;;;;5025182;28;20930;-91
2022/07/04 04:18:46;;;;;;;3.27;3.00;;;24.10;48.20;;;;;;5031330;28;20470;-91
2022/07/04 04:21:13;;;;;;;3.70;3.43;;;24.10;48.50;;;;;;5031757;28;21097;-90
2022/07/04 04:23:41;;;;;;;3.10;2.90;;;24.10;48.20;;;;;;5027103;28;21006;-91
2022/07/04 04:26:08;;;;;;;4.60;3.00;;;24.10;48.10;;;;;;5045755;28;20492;-89
2022/07/04 04:28:35;;;;;;;4.00;3.23;;;24.10;48.30;;;;;;5019691;28;20894;-90
2022/07/04 04:31:02;;;;;;;3.13;2.83;;;24.10;48.50;;;;;;5008960;28;20452;-90
2022/07/04 04:33:29;;;;;;;3.13;2.83;;;24.10;48.60;;;;;;5010242;28;20454;-90
2022/07/04 04:35:56;;;;;;;3.20;2.90;;;24.20;48.80;;;;;;4999986;28;20486;-91
2022/07/04 04:38:24;;;;;;;3.80;3.30;;;24.10;48.60;;;;;;5027685;27;20542;-91
2022/07/04 04:40:52;;;;;;;4.43;3.30;;;24.20;48.80;;;;;;5022297;27;20446;-91
2022/07/04 04:43:19;;;;;;;2.97;2.77;;;24.10;48.30;;;;;;5033373;27;20448;-91
2022/07/04 04:45:46;;;;;;;3.73;3.50;;;24.10;48.60;;;;;;5025545;28;20476;-91
2022/07/04 04:48:14;;;;;;;3.80;3.23;;;24.10;48.80;;;;;;5031753;27;20566;-90
2022/07/04 04:50:41;;;;;;;3.87;3.57;;;24.10;49.00;;;;;;5012563;27;20454;-91
2022/07/04 04:53:08;;;;;;;2.90;2.70;;;24.10;49.30;;;;;;5006602;28;20456;-91
2022/07/04 04:55:35;;;;;;;3.83;3.53;;;24.10;49.30;;;;;;5006850;27;20552;-90
2022/07/04 04:58:03;;;;;;;4.43;3.30;;;24.10;49.20;;;;;;5017904;28;20530;-88
2022/07/04 05:00:31;;;;;;;4.43;3.20;;;24.20;49.40;;;;;;5030316;27;20454;-91
2022/07/04 05:02:58;;;;;;;4.30;2.90;;;24.20;49.30;;;;;;5027147;27;20483;-90
2022/07/04 05:05:25;;;;;;;4.40;3.97;;;24.20;49.30;;;;;;5025137;27;20463;-90
2022/07/04 05:07:52;;;;;;;3.33;3.03;;;24.20;49.80;;;;;;5024668;28;20489;-91
2022/07/04 05:10:19;;;;;;;3.23;3.00;;;24.20;49.40;;;;;;5033974;27;20449;-90
2022/07/04 05:12:46;;;;;;;4.07;3.20;;;24.30;49.70;;;;;;5017585;27;20949;-90
2022/07/04 05:15:15;;;;;;;3.30;3.10;;;24.30;49.50;;;;;;5029282;27;20527;-90
2022/07/04 05:17:42;;;;;;;3.50;3.30;;;24.10;49.50;;;;;;5027711;27;20451;-90
2022/07/04 05:20:09;;;;;;;2.93;2.63;;;24.20;49.90;;;;;;5013401;27;20459;-90
2022/07/04 05:22:37;;;;;;;3.90;3.03;;;24.30;50.10;;;;;;5028883;27;20553;-90
2022/07/04 05:25:04;;;;;;;3.50;3.27;;;24.30;49.90;;;;;;5012054;27;20470;-90
2022/07/04 05:27:31;;;;;;;3.40;3.00;;;24.20;49.70;;;;;;5031389;27;20459;-90
2022/07/04 05:29:59;;;;;;;3.23;3.00;;;24.20;49.20;;;;;;5027154;28;20537;-90
2022/07/04 05:32:28;;;;;;;3.23;3.03;;;24.20;49.30;;;;;;5009759;28;20448;-88
2022/07/04 05:34:56;;;;;;;3.37;3.07;;;24.20;49.50;;;;;;4992446;28;20482;-90
2022/07/04 05:37:23;;;;;;;3.10;2.90;;;24.10;50.00;;;;;;5025561;27;20442;-90
2022/07/04 05:39:50;;;;;;;3.43;3.10;;;24.10;50.00;;;;;;5030013;27;20862;-89
2022/07/04 05:42:17;;;;;;;3.07;2.87;;;24.20;49.50;;;;;;5032364;27;20940;-90
2022/07/04 05:44:44;;;;;;;3.53;2.80;;;24.10;48.20;;;;;;5031959;27;20582;-89
2022/07/04 05:47:11;;;;;;;2.50;2.30;;;24.10;48.60;;;;;;5026277;28;20545;-90
2022/07/04 05:49:39;;;;;;;2.50;2.30;;;24.30;48.20;;;;;;5018028;27;20489;-91
2022/07/04 05:52:06;;;;;;;4.30;2.90;;;24.50;47.60;;;;;;5020878;27;20542;-90
2022/07/04 05:54:34;;;;;;;3.20;2.90;;;24.60;47.50;;;;;;5027836;27;20530;-90
2022/07/04 05:57:00;;;;;;;2.43;2.23;;;24.80;47.80;;;;;;5025819;27;20974;-91
2022/07/04 05:59:29;;;;;;;3.23;2.90;;;25.00;47.80;;;;;;5023428;28;20500;-90
2022/07/04 06:01:56;;;;;;;2.50;2.20;;;25.00;47.00;;;;;;4993621;28;20449;-90
2022/07/04 06:04:23;;;;;;;3.20;2.63;;;25.00;46.80;;;;;;5030311;27;20445;-93
2022/07/04 06:06:51;;;;;;;3.30;2.37;;;25.00;46.80;;;;;;5034317;27;20450;-91
2022/07/04 06:09:19;;;;;;;2.73;2.53;;;25.10;46.90;;;;;;5018640;27;20451;-91
2022/07/04 06:11:46;;;;;;;2.37;2.17;;;25.30;47.10;;;;;;5031295;27;20817;-92
2022/07/04 06:14:13;;;;;;;3.17;2.43;;;25.10;46.40;;;;;;5024904;28;20467;-91
2022/07/04 06:16:40;;;;;;;3.27;2.67;;;24.80;46.10;;;;;;5010409;28;20515;-91
2022/07/04 06:19:08;;;;;;;3.13;2.93;;;24.70;47.00;;;;;;5014161;27;20893;-91
2022/07/04 06:21:35;;;;;;;3.10;2.80;;;24.80;47.30;;;;;;5012252;27;20827;-90
2022/07/04 06:24:04;;;;;;;4.23;2.90;;;24.70;46.20;;;;;;4995459;28;20454;-89
2022/07/04 06:26:31;;;;;;;2.87;2.60;;;24.80;47.00;;;;;;5013032;28;21375;-91
2022/07/04 06:28:59;;;;;;;2.90;2.47;;;24.90;47.00;;;;;;4988635;28;20833;-91
2022/07/04 06:31:26;;;;;;;4.40;2.30;;;25.30;46.30;;;;;;5026246;27;20905;-91
2022/07/04 06:36:37;;;;;;;2.83;2.63;;;25.40;45.10;;;;;;5010654;28;20470;-90
2022/07/04 06:39:06;;;;;;;5.33;2.57;;;25.50;45.00;;;;;;5022141;28;20478;-92
2022/07/04 06:41:33;;;;;;;6.10;3.10;;;25.70;45.10;;;;;;4997325;28;20487;-90
2022/07/04 06:44:00;;;;;;;2.83;2.47;;;25.60;44.10;;;;;;5011868;28;20439;-90
2022/07/04 06:46:27;;;;;;;2.80;2.60;;;25.90;45.00;;;;;;5013442;28;20824;-91
2022/07/04 06:48:54;;;;;;;3.63;3.27;;;26.10;44.60;;;;;;5010977;28;20459;-90
2022/07/04 06:51:21;;;;;;;3.00;2.80;;;26.10;43.80;;;;;;5025589;27;21025;-90
2022/07/04 06:53:48;;;;;;;3.10;2.80;;;26.00;43.70;;;;;;5006037;28;20447;-90
2022/07/04 06:56:17;;;;;;;2.60;2.40;;;26.20;43.80;;;;;;4986143;28;20462;-90
2022/07/04 06:58:44;;;;;;;2.60;2.40;;;26.20;43.50;;;;;;4989488;28;20503;-90
2022/07/04 07:01:11;;;;;;;4.40;2.47;;;26.00;44.40;;;;;;4986478;28;20482;-90
2022/07/04 07:03:38;;;;;;;2.27;2.07;;;26.20;44.40;;;;;;5088518;27;20527;-90
2022/07/04 07:06:05;;;;;;;2.93;2.60;;;26.30;44.10;;;;;;5002672;28;20470;-90
2022/07/04 07:08:33;;;;;;;3.40;2.30;;;26.60;44.10;;;;;;5004909;28;20891;-88
2022/07/04 07:11:12;;;;;;;2.43;2.27;;;26.80;43.10;;;;;;4985189;28;20913;-90
2022/07/04 07:13:41;;;;;;;2.60;2.40;;;26.80;43.10;;;;;;5093583;27;20453;-90
2022/07/04 07:16:10;;;;;;;2.17;2.07;;;27.00;43.00;;;;;;4967896;28;20707;-89
2022/07/04 07:18:37;;;;;;;2.97;2.67;;;27.10;42.70;;;;;;4997012;28;20503;-91
2022/07/04 07:21:04;;;;;;;4.33;2.17;;;27.20;41.90;;;;;;4980688;28;20586;-90
2022/07/04 07:23:31;;;;;;;1.97;1.87;;;27.10;41.50;;;;;;4984991;28;20449;-90
2022/07/04 07:25:58;;;;;;;3.57;2.10;;;27.10;41.60;;;;;;5002369;28;20471;-89
2022/07/04 07:28:25;;;;;;;1.93;1.83;;;27.30;41.40;;;;;;5003831;28;20863;-90
2022/07/04 07:30:54;;;;;;;2.83;2.30;;;27.40;41.30;;;;;;5020719;28;20462;-90
2022/07/04 07:33:21;;;;;;;3.60;2.20;;;27.40;40.90;;;;;;5020260;28;20537;-89
2022/07/04 07:35:47;;;;;;;2.73;2.00;;;27.50;41.30;;;;;;5002010;28;20486;-90
2022/07/04 07:38:15;;;;;;;2.53;2.33;;;27.70;40.60;;;;;;4998839;28;20458;-90
2022/07/04 07:40:42;;;;;;;2.20;2.00;;;27.50;40.50;;;;;;5017654;28;20493;-89
2022/07/04 07:43:09;;;;;;;3.60;2.40;;;27.70;40.70;;;;;;5018537;28;20454;-90
2022/07/04 07:45:36;;;;;;;3.83;1.90;;;27.90;40.00;;;;;;5005123;28;20469;-89
2022/07/04 07:48:05;;;;;;;2.20;2.00;;;27.90;40.10;;;;;;5003107;28;20455;-89
2022/07/04 07:50:32;;;;;;;2.10;2.00;;;28.10;39.20;;;;;;5017862;28;20553;-91
2022/07/04 07:52:59;;;;;;;11.30;2.47;;;28.20;38.70;;;;;;5019851;28;20474;-89
2022/07/04 07:55:26;;;;;;;2.53;2.00;;;28.00;37.50;;;;;;5017723;28;20467;-89
2022/07/04 07:57:54;;;;;;;2.10;2.00;;;27.80;37.90;;;;;;5004654;28;20457;-89
2022/07/04 08:00:21;;;;;;;3.67;1.90;;;27.90;38.60;;;;;;5002369;28;20948;-90
2022/07/04 08:05:33;;;;;;;2.23;2.13;;;27.60;37.70;;;;;;5017335;28;20477;-88
2022/07/04 08:08:01;;;;;;;3.50;2.00;;;28.00;38.50;;;;;;5018938;28;20607;-88
2022/07/04 08:10:28;;;;;;;2.00;1.90;;;28.20;37.90;;;;;;5021308;28;20918;-88
2022/07/04 08:12:55;;;;;;;3.40;2.10;;;28.20;37.80;;;;;;5021526;27;20447;-88
2022/07/04 08:15:23;;;;;;;2.00;1.90;;;28.30;38.50;;;;;;5020854;28;20469;-88
2022/07/04 08:17:50;;;;;;;2.90;2.20;;;28.50;38.00;;;;;;5013736;27;20467;-89
2022/07/04 08:20:17;;;;;;;4.70;2.33;;;28.60;37.90;;;;;;5024866;27;20446;-87
2022/07/04 08:22:45;;;;;;;1.90;1.80;;;28.70;37.00;;;;;;4994239;28;20458;-86
2022/07/04 08:25:14;;;;;;;2.40;2.20;;;28.70;37.70;;;;;;5022619;28;20487;-91
2022/07/04 08:27:41;;;;;;;1.93;1.83;;;28.90;36.40;;;;;;5028729;27;20442;-89
2022/07/04 08:30:08;;;;;;;2.23;1.50;;;28.80;36.30;;;;;;5021742;27;20482;-89
2022/07/04 08:32:35;;;;;;;2.97;1.80;;;28.90;37.00;;;;;;5008953;28;20829;-88
2022/07/04 08:35:03;;;;;;;2.47;2.37;;;28.80;36.60;;;;;;5001178;28;20482;-88
2022/07/04 08:37:30;;;;;;;2.07;1.63;;;28.80;37.30;;;;;;5002831;28;20445;-89
2022/07/04 08:39:58;;;;;;;2.30;2.20;;;28.90;36.60;;;;;;4994590;28;21017;-89
2022/07/04 08:42:28;;;;;;;2.63;2.10;;;29.00;37.10;;;;;;5029765;27;20826;-91
2022/07/04 08:44:55;;;;;;;1.83;1.73;;;29.10;37.00;;;;;;5093673;27;20453;-91
2022/07/04 08:47:24;;;;;;;2.10;1.90;;;29.30;36.50;;;;;;5012851;28;20454;-93
2022/07/04 08:49:57;;;;;;;2.83;2.27;;;29.50;36.80;;;;;;5012264;28;20506;-92
2022/07/04 08:52:33;;;;;;;2.13;2.00;;;29.70;35.60;;;;;;5031548;27;20952;-92
2022/07/04 09:00:33;;;;;;;2.50;1.80;;;29.90;33.40;;;;;;5022615;28;20482;-90
2022/07/04 09:03:03;;;;;;;2.23;1.90;;;29.90;33.40;;;;;;5029092;27;20451;-90
2022/07/04 09:05:30;;;;;;;2.13;2.03;;;29.90;34.70;;;;;;5022951;28;20470;-90
2022/07/04 09:07:58;;;;;;;2.37;2.17;;;30.10;34.20;;;;;;5020232;28;21170;-89
2022/07/04 09:10:27;;;;;;;1.90;1.80;;;30.20;34.40;;;;;;5006876;28;20453;-90
2022/07/04 09:12:54;;;;;;;2.60;1.83;;;30.10;35.00;;;;;;5021749;27;20446;-88
2022/07/04 09:15:22;;;;;;;1.97;1.87;;;30.30;34.70;;;;;;5005561;28;20605;-90
2022/07/04 09:17:49;;;;;;;1.97;1.77;;;30.60;34.30;;;;;;5020818;27;20451;-91
2022/07/04 09:20:18;;;;;;;1.83;1.73;;;30.50;33.50;;;;;;5006314;27;20445;-90
2022/07/04 09:22:46;;;;;;;3.83;2.00;;;30.40;33.70;;;;;;5004924;28;20547;-90
2022/07/04 09:25:14;;;;;;;3.03;1.73;;;30.40;33.50;;;;;;5019077;28;20482;-89
2022/07/04 09:27:45;;;;;;;2.47;1.60;;;30.40;32.50;;;;;;5020174;27;20454;-90
2022/07/04 09:30:13;;;;;;;2.03;1.93;;;30.50;32.50;;;;;;5020244;27;20496;-89
2022/07/04 09:32:42;;;;;;;3.40;2.00;;;30.70;32.60;;;;;;5019955;28;21079;-90
2022/07/04 09:35:11;;;;;;;1.77;1.67;;;30.80;31.00;;;;;;5021049;28;20474;-90
2022/07/04 09:37:41;;;;;;;1.70;1.60;;;30.80;31.00;;;;;;5020760;28;20933;-89
2022/07/04 09:40:11;;;;;;;2.43;1.90;;;30.70;32.40;;;;;;5022560;27;20450;-89
2022/07/04 09:42:43;;;;;;;1.93;1.83;;;30.50;32.50;;;;;;5004165;28;20827;-89
2022/07/04 09:45:12;;;;;;;2.40;1.60;;;30.60;32.10;;;;;;5018391;28;20474;-89
2022/07/04 09:47:40;;;;;;;1.83;1.73;;;30.70;32.40;;;;;;4990730;28;20446;-89
2022/07/04 09:50:09;;;;;;;2.10;1.90;;;30.90;31.80;;;;;;5022025;27;20471;-90
2022/07/04 09:52:53;;;;;;;2.50;2.03;;;30.80;31.80;;;;;;4992869;28;20446;-90
2022/07/04 09:55:26;;;;;;;1.70;1.60;;;31.20;31.50;;;;;;5016556;27;20482;-90
2022/07/04 09:57:56;;;;;;;1.90;1.80;;;31.20;30.80;;;;;;5023961;27;20438;-90
2022/07/04 10:00:26;;;;;;;2.77;1.70;;;30.70;30.90;;;;;;5002225;28;20451;-90
2022/07/04 10:02:54;;;;;;;1.73;1.63;;;30.60;32.50;;;;;;4997794;28;20439;-90
2022/07/04 10:05:23;;;;;;;1.97;1.70;;;30.60;31.40;;;;;;5009155;28;20466;-90
2022/07/04 10:07:50;;;;;;;1.80;1.70;;;30.30;31.30;;;;;;5019495;28;20443;-89
2022/07/04 10:10:25;;;;;;;1.97;1.77;;;30.30;31.30;;;;;;5023221;27;21229;-89
2022/07/04 10:12:56;;;;;;;1.87;1.77;;;30.50;31.50;;;;;;5019169;28;20960;-91
2022/07/04 10:15:23;;;;;;;1.50;1.40;;;30.80;29.80;;;;;;5022701;28;20462;-90
2022/07/04 10:17:50;;;;;;;1.70;1.50;;;31.00;31.30;;;;;;5018673;27;21446;-91
2022/07/04 10:20:17;;;;;;;3.10;1.50;;;31.20;29.90;;;;;;5003334;28;20955;-89
2022/07/04 10:22:45;;;;;;;1.80;1.70;;;31.50;30.10;;;;;;5020316;28;20461;-90
2022/07/04 10:25:12;;;;;;;1.70;1.60;;;32.00;31.30;;;;;;4989237;28;20542;-91
2022/07/04 10:27:39;;;;;;;2.00;1.70;;;32.30;29.60;;;;;;5023282;28;20462;-90
2022/07/04 10:30:12;;;;;;;4.30;1.70;;;32.60;28.90;;;;;;5004870;28;20462;-91
2022/07/04 10:32:42;;;;;;;2.37;2.00;;;32.70;28.50;;;;;;5002040;28;20460;-90
2022/07/04 10:35:13;;;;;;;1.73;1.57;;;32.60;28.20;;;;;;5019785;27;20471;-89
2022/07/04 10:37:59;;;;;;;3.10;1.73;;;32.40;28.40;;;;;;5019899;27;20458;-90
2022/07/04 10:40:42;;;;;;;3.23;1.30;;;32.20;28.60;;;;;;5005605;28;20947;-91
2022/07/04 10:43:43;;;;;;;1.67;1.57;;;32.40;28.90;;;;;;5010254;28;20462;-90
2022/07/04 10:46:51;;;;;;;4.13;1.43;;;32.30;28.40;;;;;;5018692;28;20477;-89
2022/07/04 10:49:22;;;;;;;1.60;1.50;;;31.90;28.80;;;;;;5013276;27;20964;-89
2022/07/04 10:51:50;;;;;;;5.60;1.50;;;31.90;28.50;;;;;;5018975;28;20460;-89
2022/07/04 10:54:19;;;;;;;1.40;1.30;;;31.80;28.00;;;;;;5018142;27;20886;-90
2022/07/04 10:56:51;;;;;;;2.57;1.40;;;31.70;28.40;;;;;;5009002;28;20505;-89
2022/07/04 10:59:21;;;;;;;3.33;1.60;;;31.50;28.10;;;;;;5020296;28;20546;-90
2022/07/04 11:01:53;;;;;;;1.97;1.43;;;31.60;28.00;;;;;;5004137;28;20480;-90
2022/07/04 11:04:45;;;;;;;7.03;1.60;;;31.90;27.60;;;;;;5018350;28;20455;-89
2022/07/04 11:07:12;;;;;;;2.10;1.90;;;32.20;28.40;;;;;;5010778;28;21051;-90
2022/07/04 11:09:39;;;;;;;3.00;1.73;;;32.20;28.40;;;;;;5020477;28;20474;-90
2022/07/04 11:12:06;;;;;;;2.50;1.50;;;32.20;27.90;;;;;;5006048;28;20477;-90
2022/07/04 11:14:36;;;;;;;1.90;1.80;;;32.30;27.00;;;;;;5016240;28;20462;-89
2022/07/04 11:17:05;;;;;;;1.17;1.07;;;32.20;26.40;;;;;;5009023;28;20465;-89
2022/07/04 11:19:32;;;;;;;1.43;1.33;;;32.20;25.30;;;;;;5021624;28;20624;-91
2022/07/04 11:22:00;;;;;;;2.93;1.30;;;32.40;25.40;;;;;;4992524;28;20462;-90
2022/07/04 11:24:28;;;;;;;1.30;1.20;;;32.50;25.90;;;;;;5018610;28;20825;-91
2022/07/04 11:26:56;;;;;;;1.53;1.30;;;32.70;25.60;;;;;;5019995;28;20965;-90
2022/07/04 11:29:22;;;;;;;1.87;1.20;;;33.00;25.90;;;;;;5020016;28;20447;-90
2022/07/04 11:31:52;;;;;;;1.60;1.33;;;33.40;24.80;;;;;;5024831;28;20945;-90
2022/07/04 11:34:21;;;;;;;1.13;1.00;;;33.70;24.00;;;;;;5020270;28;20882;-87
2022/07/04 11:36:49;;;;;;;2.20;1.80;;;33.70;24.90;;;;;;5021806;28;20454;-89
2022/07/04 11:39:19;;;;;;;1.87;1.40;;;33.30;24.60;;;;;;4990762;28;20459;-90
2022/07/04 11:47:20;;;;;;;1.97;1.23;;;33.40;24.60;;;;;;5022784;28;20509;-90
2022/07/04 11:49:50;;;;;;;1.70;1.50;;;33.10;24.60;;;;;;5023908;27;21034;-89
2022/07/04 11:52:20;;;;;;;2.10;1.20;;;33.00;24.50;;;;;;5026834;27;20844;-90
2022/07/04 11:54:49;;;;;;;1.83;1.20;;;32.90;23.40;;;;;;5003710;28;20486;-90
2022/07/04 11:57:18;;;;;;;1.30;1.17;;;32.80;24.10;;;;;;5025815;27;20542;-90
2022/07/04 11:59:57;;;;;;;2.30;1.23;;;32.80;24.00;;;;;;5020719;28;20807;-90
2022/07/04 12:02:25;;;;;;;1.50;1.40;;;32.90;24.80;;;;;;5004248;28;20954;-90
2022/07/04 12:04:53;;;;;;;1.20;1.07;;;32.90;23.90;;;;;;5019630;28;20477;-89
2022/07/04 12:07:23;;;;;;;4.53;1.70;;;33.00;24.80;;;;;;5093611;27;20552;-89
2022/07/04 12:09:50;;;;;;;4.20;1.30;;;33.00;23.90;;;;;;5024376;28;20469;-90
2022/07/04 12:12:18;;;;;;;1.30;1.20;;;32.80;24.20;;;;;;5021057;27;20469;-90
2022/07/04 12:14:59;;;;;;;1.40;1.30;;;32.80;23.60;;;;;;5011023;27;20473;-89
2022/07/04 12:17:31;;;;;;;1.70;1.20;;;32.90;24.00;;;;;;5021784;27;20458;-89
2022/07/04 12:20:01;;;;;;;1.60;1.40;;;33.00;24.20;;;;;;5030481;27;20443;-90
2022/07/04 12:22:33;;;;;;;3.70;1.40;;;33.10;23.70;;;;;;5071496;28;20458;-91
2022/07/04 12:25:02;;;;;;;1.50;1.30;;;33.20;24.20;;;;;;5028869;28;20549;-90
2022/07/04 12:27:30;;;;;;;1.83;1.47;;;33.40;24.50;;;;;;5029996;27;20449;-90
2022/07/04 12:29:58;;;;;;;1.50;1.40;;;33.30;23.80;;;;;;5026365;27;20491;-90
2022/07/04 12:32:44;;;;;;;2.30;1.60;;;33.30;24.30;;;;;;5024455;27;20451;-90
2022/07/04 12:35:40;;;;;;;1.60;1.50;;;33.30;24.30;;;;;;5020254;28;21005;-89
2022/07/04 12:38:10;;;;;;;5.53;1.30;;;33.30;24.30;;;;;;4995953;28;20450;-89
2022/07/04 12:40:49;;;;;;;1.60;1.50;;;33.40;25.10;;;;;;5017766;28;20443;-90
2022/07/04 12:43:16;;;;;;;1.63;1.20;;;33.50;23.90;;;;;;5019303;28;21096;-90
2022/07/04 12:45:47;;;;;;;2.27;1.40;;;33.70;23.00;;;;;;5022412;27;20508;-90
2022/07/04 12:48:22;;;;;;;1.47;1.37;;;33.80;23.60;;;;;;5024252;27;20454;-91
2022/07/04 12:50:52;;;;;;;3.63;1.43;;;33.80;24.20;;;;;;5022022;27;20458;-91
2022/07/04 12:53:19;;;;;;;1.80;1.27;;;33.90;23.70;;;;;;5020143;28;20441;-90
2022/07/04 12:55:47;;;;;;;2.40;1.30;;;34.20;24.60;;;;;;5001949;28;20482;-89
2022/07/04 12:58:15;;;;;;;1.83;1.40;;;34.30;24.00;;;;;;5026402;27;20457;-89
2022/07/04 13:00:42;;;;;;;1.40;1.30;;;34.30;23.80;;;;;;4999259;28;20444;-90
2022/07/04 13:03:09;;;;;;;2.13;1.30;;;33.90;23.00;;;;;;5023218;27;20477;-89
2022/07/04 13:05:37;;;;;;;1.20;1.10;;;33.80;23.70;;;;;;5023100;27;20561;-91
2022/07/04 13:08:06;;;;;;;1.30;1.17;;;34.00;24.30;;;;;;5026814;27;20505;-90
2022/07/04 13:10:34;;;;;;;2.40;1.43;;;34.30;23.80;;;;;;5023643;28;20481;-89
2022/07/04 13:13:01;;;;;;;1.67;1.10;;;34.20;23.60;;;;;;5004787;28;20454;-91
2022/07/04 13:15:29;;;;;;;1.43;1.33;;;34.20;23.50;;;;;;5023916;27;20477;-90
2022/07/04 13:17:56;;;;;;;1.10;1.00;;;34.20;23.10;;;;;;5022944;27;20553;-90
2022/07/04 13:20:23;;;;;;;1.50;1.30;;;34.50;22.90;;;;;;5027701;27;20462;-91
2022/07/04 13:22:50;;;;;;;1.40;1.30;;;34.30;23.00;;;;;;5023708;27;20455;-90